Farmersville's Hourly Summary for Saturday, July 7, 2018
Hour Temp
(f)
RH
(%)
Solar Rad.
(MJ/m2)
Rainfall
(in)
Wind
(mph)
7/7/2018 12:00 AM 77 72 0 0 0.25
7/7/2018 1:00 AM 75 80 0 0 0.01
7/7/2018 2:00 AM 74 85 0 0 0.02
7/7/2018 3:00 AM 73 99 0 0 0.03
7/7/2018 4:00 AM 72 99 0 0 0
7/7/2018 5:00 AM 71 99 0 0 0
7/7/2018 6:00 AM 71 100 0 0 0
7/7/2018 7:00 AM 70 100 0.05 0 0
7/7/2018 8:00 AM 73 79 0.45 0 0.22
7/7/2018 9:00 AM 79 69 1.03 0 1.49
7/7/2018 10:00 AM 82 59 1.61 0 2.6
7/7/2018 11:00 AM 86 55 2 0 2.68
7/7/2018 12:00 PM 90 48 2.64 0 2.2
7/7/2018 1:00 PM 92 45 2.79 0 2.47
7/7/2018 2:00 PM 94 39 2.63 0 1.8
7/7/2018 3:00 PM 95 37 2.81 0 2.17
7/7/2018 4:00 PM 95 36 2.55 0 2.35
7/7/2018 5:00 PM 91 38 1.21 0 3.27
7/7/2018 6:00 PM 91 45 1.38 0 2.91
7/7/2018 7:00 PM 92 45 1.07 0 2.74
7/7/2018 8:00 PM 90 45 0.48 0 2.51
7/7/2018 9:00 PM 86 48 0.04 0 2.74
7/7/2018 10:00 PM 80 60 0 0 1.69
7/7/2018 11:00 PM 78 72 0 0 0.12
Data Summary 82 64 22.74 0.00 1.43